Time;durP1;ratioP1;P1;durP2;ratioP2;P2;SDS_P1;SDS_P2;PMS_P1;PMS_P2;Temp;Humidity;BMP_temperature;BMP_pressure;BME280_temperature;BME280_humidity;BME280_pressure;Samples;Min_cycle;Max_cycle;Signal;HPM_P1;HPM_P2
2021/12/02 00:02:00;;;;;;;9.47;4.20;;;6.30;98.40;;;;;;5012524;28;20510;-75
2021/12/02 00:04:27;;;;;;;5.87;3.10;;;6.30;98.30;;;;;;4994672;28;20264;-75
2021/12/02 00:06:53;;;;;;;6.27;3.40;;;6.30;98.30;;;;;;5012621;28;20151;-75
2021/12/02 00:09:19;;;;;;;6.20;3.67;;;6.30;98.20;;;;;;5012481;28;20895;-75
2021/12/02 00:11:44;;;;;;;6.63;3.77;;;6.30;98.20;;;;;;4994624;28;20249;-75
2021/12/02 00:14:12;;;;;;;5.53;2.80;;;6.30;98.20;;;;;;4978200;28;20171;-75
2021/12/02 00:16:41;;;;;;;8.37;3.50;;;6.30;98.20;;;;;;5012095;28;20418;-75
2021/12/02 00:21:53;;;;;;;9.17;2.97;;;6.30;98.20;;;;;;5011765;28;20421;-74
2021/12/02 00:24:22;;;;;;;4.70;3.20;;;6.30;98.20;;;;;;4994362;28;20462;-75
2021/12/02 00:26:49;;;;;;;5.00;3.67;;;6.20;98.10;;;;;;5012061;28;20417;-74
2021/12/02 00:29:19;;;;;;;12.67;3.83;;;6.20;98.20;;;;;;4994463;28;20418;-74
2021/12/02 00:31:47;;;;;;;6.97;4.20;;;6.20;98.30;;;;;;4994167;28;20476;-75
2021/12/02 00:34:13;;;;;;;5.10;3.80;;;6.20;98.30;;;;;;5011918;28;20448;-75
2021/12/02 00:36:40;;;;;;;7.40;4.07;;;6.20;98.40;;;;;;4994404;28;20437;-75
2021/12/02 00:39:13;;;;;;;7.07;3.93;;;6.20;98.50;;;;;;5011961;28;20449;-76
2021/12/02 00:42:03;;;;;;;5.93;3.73;;;6.20;98.40;;;;;;5016737;23;20480;-73
2021/12/02 00:45:17;;;;;;;;;;;;;;;;;;;;;
2021/12/02 00:47:49;;;;;;;11.73;4.63;;;6.10;98.50;;;;;;4986814;28;20512;-74
2021/12/02 00:50:53;;;;;;;10.70;6.17;;;6.10;98.50;;;;;;5019325;28;20424;-73
2021/12/02 00:54:04;;;;;;;8.57;4.57;;;6.10;98.70;;;;;;5013723;28;20955;-73
2021/12/02 00:56:45;;;;;;;10.23;4.50;;;6.10;98.70;;;;;;4996081;28;20416;-73
2021/12/02 00:59:50;;;;;;;15.03;5.13;;;6.10;98.70;;;;;;4996140;28;20417;-73
2021/12/02 01:05:59;;;;;;;10.50;5.50;;;6.10;98.70;;;;;;4991668;28;21406;-73
2021/12/02 01:08:31;;;;;;;9.00;5.40;;;6.10;98.70;;;;;;4979206;28;20414;-74
2021/12/02 01:11:29;;;;;;;10.13;5.60;;;6.10;98.70;;;;;;4979591;28;20524;-73
2021/12/02 01:14:18;;;;;;;12.50;6.40;;;6.10;98.70;;;;;;4994213;28;20432;-73
2021/12/02 01:16:49;;;;;;;13.70;6.20;;;6.10;98.80;;;;;;4995597;28;20911;-73
2021/12/02 01:19:41;;;;;;;12.97;6.70;;;6.10;98.80;;;;;;4995911;28;20425;-73
2021/12/02 01:22:34;;;;;;;12.77;6.47;;;6.10;98.80;;;;;;4998520;28;20477;-73
2021/12/02 01:25:13;;;;;;;11.57;6.10;;;6.10;98.90;;;;;;4996997;28;20449;-73
2021/12/02 01:27:43;;;;;;;16.13;6.43;;;6.10;98.90;;;;;;4995267;28;20442;-73
2021/12/02 01:30:37;;;;;;;13.30;7.10;;;6.10;98.90;;;;;;4980293;28;20436;-73
2021/12/02 01:33:12;;;;;;;10.73;6.60;;;6.10;99.00;;;;;;4991269;28;20429;-73
2021/12/02 01:35:50;;;;;;;15.10;6.67;;;6.10;99.00;;;;;;4996733;28;20974;-73
2021/12/02 01:39:06;;;;;;;13.00;6.60;;;6.10;99.10;;;;;;4998413;28;20394;-74
2021/12/02 01:42:06;;;;;;;11.70;6.83;;;6.10;98.90;;;;;;4660863;28;9662294;-73
2021/12/02 01:44:55;;;;;;;12.40;7.17;;;6.10;98.90;;;;;;4994038;28;20461;-73
2021/12/02 01:48:00;;;;;;;7.47;4.80;;;6.10;98.90;;;;;;4996178;28;20432;-74
2021/12/02 01:54:21;;;;;;;14.73;7.07;;;6.10;98.90;;;;;;5013641;28;20418;-73
2021/12/02 01:56:55;;;;;;;11.10;5.87;;;6.10;98.80;;;;;;4979848;28;20822;-73
2021/12/02 01:59:35;;;;;;;11.47;6.43;;;6.10;98.70;;;;;;4996265;28;20434;-73
2021/12/02 02:02:20;;;;;;;18.40;6.70;;;6.10;98.70;;;;;;4979707;28;20441;-73
2021/12/02 02:04:53;;;;;;;16.63;6.70;;;6.20;98.80;;;;;;4995854;28;20608;-73
2021/12/02 02:07:19;;;;;;;6.87;5.63;;;6.20;98.60;;;;;;5013398;28;20827;-73
2021/12/02 02:09:49;;;;;;;7.63;5.07;;;6.20;98.60;;;;;;5013370;28;20425;-74
2021/12/02 02:12:19;;;;;;;11.27;5.00;;;6.20;98.40;;;;;;5012982;28;20280;-73
2021/12/02 02:14:45;;;;;;;11.80;5.17;;;6.20;98.40;;;;;;4995938;28;20406;-73
2021/12/02 02:17:22;;;;;;;10.73;6.50;;;6.20;98.40;;;;;;4996242;28;20409;-73
2021/12/02 02:19:51;;;;;;;10.30;4.93;;;6.20;98.40;;;;;;5013580;28;20452;-73
2021/12/02 02:22:27;;;;;;;8.30;5.63;;;6.20;98.30;;;;;;5012896;28;20996;-73
2021/12/02 02:24:54;;;;;;;12.47;6.40;;;6.20;98.10;;;;;;4995332;28;20457;-73
2021/12/02 02:27:21;;;;;;;9.90;5.70;;;6.20;98.00;;;;;;4979280;28;20445;-73
2021/12/02 02:29:47;;;;;;;13.10;6.00;;;6.20;98.00;;;;;;4995371;28;20406;-73
2021/12/02 02:32:13;;;;;;;9.17;5.40;;;6.20;98.00;;;;;;5012642;28;20442;-73
2021/12/02 02:34:39;;;;;;;10.70;6.20;;;6.20;98.00;;;;;;4979032;28;20185;-73
2021/12/02 02:37:06;;;;;;;8.23;5.03;;;6.20;97.90;;;;;;4979117;28;20413;-74
2021/12/02 02:39:35;;;;;;;9.37;5.80;;;6.20;97.90;;;;;;4979259;28;20624;-73
2021/12/02 02:42:06;;;;;;;17.00;6.23;;;6.20;97.90;;;;;;4978191;28;20457;-74
2021/12/02 02:44:33;;;;;;;10.03;5.40;;;6.20;97.80;;;;;;4978883;28;20462;-73
2021/12/02 02:47:03;;;;;;;11.77;6.50;;;6.20;97.90;;;;;;4995207;28;20793;-73
2021/12/02 02:49:32;;;;;;;8.80;5.07;;;6.20;97.90;;;;;;4995130;28;20959;-74
2021/12/02 02:52:04;;;;;;;8.23;5.00;;;6.10;97.90;;;;;;4994853;28;20572;-73
2021/12/02 02:54:30;;;;;;;9.93;4.80;;;6.10;97.80;;;;;;4978981;28;20418;-73
2021/12/02 02:57:07;;;;;;;9.47;4.77;;;6.10;97.80;;;;;;4978958;28;20414;-73
2021/12/02 02:59:55;;;;;;;6.50;4.40;;;6.10;97.70;;;;;;4994789;28;20456;-73
2021/12/02 03:02:34;;;;;;;7.70;5.33;;;6.10;97.80;;;;;;4994739;28;20437;-72
2021/12/02 03:07:53;;;;;;;7.83;4.73;;;6.10;98.00;;;;;;4996076;28;20433;-73
2021/12/02 03:10:44;;;;;;;6.47;4.10;;;6.00;97.70;;;;;;4995118;28;20410;-73
2021/12/02 03:13:34;;;;;;;7.00;4.40;;;6.00;97.70;;;;;;4993261;28;20463;-72
2021/12/02 03:18:55;;;;;;;7.73;3.70;;;6.00;97.80;;;;;;4994050;28;20417;-72
2021/12/02 03:21:22;;;;;;;10.00;4.40;;;5.90;97.50;;;;;;4994092;28;20517;-73
2021/12/02 03:23:53;;;;;;;7.47;4.97;;;5.90;97.60;;;;;;4993976;28;20418;-74
2021/12/02 03:26:19;;;;;;;11.23;6.20;;;5.90;97.70;;;;;;4978586;28;20418;-74
2021/12/02 03:28:52;;;;;;;7.27;5.37;;;5.90;97.70;;;;;;5012294;28;20410;-73
2021/12/02 03:31:21;;;;;;;7.20;4.50;;;5.90;97.80;;;;;;4978636;28;20464;-72
2021/12/02 03:33:50;;;;;;;7.93;5.27;;;5.90;97.80;;;;;;4994391;28;20420;-72
2021/12/02 03:36:17;;;;;;;6.53;5.10;;;5.90;97.50;;;;;;4994032;28;20409;-72
2021/12/02 03:38:47;;;;;;;10.00;5.60;;;5.80;97.50;;;;;;5010983;28;20414;-73
2021/12/02 03:41:16;;;;;;;9.57;5.10;;;5.80;97.50;;;;;;4994010;28;20426;-73
2021/12/02 03:43:48;;;;;;;7.87;5.37;;;5.80;97.60;;;;;;4993152;28;20421;-73
2021/12/02 03:46:20;;;;;;;14.97;8.43;;;5.80;97.80;;;;;;4993736;28;20498;-73
2021/12/02 03:48:49;;;;;;;7.80;5.07;;;5.80;98.20;;;;;;4993679;28;20445;-74
2021/12/02 03:51:15;;;;;;;7.30;4.97;;;5.80;97.90;;;;;;4993481;28;20753;-74
2021/12/02 03:53:45;;;;;;;12.63;5.10;;;5.80;97.90;;;;;;4977425;28;20513;-73
2021/12/02 03:56:14;;;;;;;7.00;4.80;;;5.80;98.00;;;;;;4993846;28;20414;-73
2021/12/02 03:58:44;;;;;;;12.90;6.20;;;5.90;98.00;;;;;;4977164;28;20410;-73
2021/12/02 04:01:14;;;;;;;12.80;4.80;;;5.90;97.90;;;;;;4977262;28;20402;-73
2021/12/02 04:03:40;;;;;;;8.47;4.57;;;5.80;97.80;;;;;;4993694;28;20402;-73
2021/12/02 04:06:15;;;;;;;10.40;4.80;;;5.80;97.80;;;;;;4993539;28;20916;-73
2021/12/02 04:08:51;;;;;;;5.77;5.00;;;5.80;97.90;;;;;;4977246;28;20504;-73
2021/12/02 04:11:30;;;;;;;10.87;4.20;;;5.80;97.90;;;;;;4993306;28;20426;-73
2021/12/02 04:16:27;;;;;;;7.50;4.97;;;5.80;97.80;;;;;;4993462;28;20437;-73
2021/12/02 04:18:53;;;;;;;5.70;3.90;;;5.80;97.70;;;;;;4993478;28;20836;-73
2021/12/02 04:21:21;;;;;;;7.97;3.73;;;5.80;97.70;;;;;;5011041;28;20417;-74
2021/12/02 04:23:52;;;;;;;6.67;3.73;;;5.80;97.30;;;;;;5009611;28;20173;-72
2021/12/02 04:26:23;;;;;;;5.20;2.70;;;5.80;97.30;;;;;;5010917;28;20900;-73
2021/12/02 04:28:49;;;;;;;3.50;2.47;;;5.70;97.10;;;;;;4977383;28;20421;-73
2021/12/02 04:31:14;;;;;;;10.40;2.60;;;5.70;96.90;;;;;;4977428;28;20912;-73
2021/12/02 04:33:46;;;;;;;3.10;1.40;;;5.70;96.90;;;;;;5010895;28;20590;-72
2021/12/02 04:36:12;;;;;;;3.03;1.50;;;5.70;96.50;;;;;;4976860;28;20266;-72
2021/12/02 04:38:40;;;;;;;6.60;3.07;;;5.70;96.40;;;;;;4993255;28;20501;-74
2021/12/02 04:41:16;;;;;;;2.80;1.33;;;5.70;96.20;;;;;;4993055;28;20181;-74
2021/12/02 04:43:42;;;;;;;6.03;1.33;;;5.70;96.10;;;;;;4976844;28;20923;-73
2021/12/02 04:46:09;;;;;;;4.50;1.20;;;5.70;96.10;;;;;;4992838;28;20510;-73
2021/12/02 04:48:38;;;;;;;5.77;1.80;;;5.60;95.90;;;;;;4976718;28;20517;-73
2021/12/02 04:51:04;;;;;;;8.23;1.43;;;5.60;96.00;;;;;;4976822;28;20454;-74
2021/12/02 04:53:37;;;;;;;2.63;1.30;;;5.60;95.80;;;;;;4993122;28;20405;-73
2021/12/02 04:56:03;;;;;;;5.23;2.10;;;5.60;95.80;;;;;;5010825;28;20506;-73
2021/12/02 04:58:35;;;;;;;5.73;1.40;;;5.60;95.80;;;;;;4993232;28;20460;-72
2021/12/02 05:01:01;;;;;;;1.67;1.17;;;5.60;95.70;;;;;;4992899;28;20456;-73
2021/12/02 05:03:30;;;;;;;2.10;1.20;;;5.50;95.80;;;;;;4976747;28;20410;-74
2021/12/02 05:05:56;;;;;;;2.83;1.77;;;5.50;95.60;;;;;;4993026;28;20507;-73
2021/12/02 05:08:22;;;;;;;5.33;1.63;;;5.50;95.70;;;;;;4993129;28;20426;-73
2021/12/02 05:10:47;;;;;;;4.10;1.63;;;5.50;95.80;;;;;;5010482;28;20163;-73
2021/12/02 05:13:13;;;;;;;5.83;1.87;;;5.50;95.90;;;;;;5010104;28;20183;-73
2021/12/02 05:15:45;;;;;;;5.47;2.43;;;5.50;95.90;;;;;;4976774;28;20180;-74
2021/12/02 05:18:13;;;;;;;6.80;2.23;;;5.50;95.90;;;;;;5010261;28;20457;-73
2021/12/02 05:20:45;;;;;;;6.10;2.37;;;5.50;95.90;;;;;;5010229;28;20497;-73
2021/12/02 05:23:21;;;;;;;3.37;2.23;;;5.50;96.10;;;;;;5254992;23;21013;-74
2021/12/02 05:25:50;;;;;;;4.63;3.33;;;5.60;96.10;;;;;;5010441;28;20878;-73
2021/12/02 05:28:17;;;;;;;10.93;4.53;;;5.60;96.10;;;;;;5010184;28;20509;-74
2021/12/02 05:30:50;;;;;;;4.37;3.40;;;5.60;96.00;;;;;;5010719;28;20433;-74
2021/12/02 05:33:26;;;;;;;4.60;2.87;;;5.60;96.10;;;;;;5008553;28;20948;-74
2021/12/02 05:35:51;;;;;;;15.03;3.57;;;5.60;96.20;;;;;;5023759;22;20517;-76
2021/12/02 05:38:17;;;;;;;5.33;3.20;;;5.60;96.20;;;;;;5057294;28;20429;-75
2021/12/02 05:40:43;;;;;;;7.50;2.77;;;5.60;96.40;;;;;;5040805;28;20236;-74
2021/12/02 05:43:08;;;;;;;5.43;2.90;;;5.50;96.40;;;;;;5033605;28;20167;-76
2021/12/02 05:45:35;;;;;;;3.50;2.90;;;5.50;96.50;;;;;;5038076;28;20244;-75
2021/12/02 05:48:01;;;;;;;4.60;2.23;;;5.50;96.50;;;;;;5015606;28;20250;-75
2021/12/02 05:50:26;;;;;;;6.70;2.43;;;5.50;96.60;;;;;;5017053;28;20981;-75
2021/12/02 05:52:52;;;;;;;6.67;2.33;;;5.50;96.60;;;;;;5018119;28;20235;-76
2021/12/02 05:55:18;;;;;;;5.90;2.60;;;5.50;96.60;;;;;;5015048;28;20278;-76
2021/12/02 05:57:44;;;;;;;11.60;2.37;;;5.50;96.40;;;;;;5017102;28;20302;-77
2021/12/02 06:00:10;;;;;;;6.47;2.73;;;5.50;96.20;;;;;;5014735;28;20426;-75
2021/12/02 06:02:39;;;;;;;3.40;2.10;;;5.50;96.20;;;;;;5015755;28;20173;-75
2021/12/02 06:05:06;;;;;;;5.27;3.90;;;5.50;96.00;;;;;;5015251;28;20445;-75
2021/12/02 06:07:33;;;;;;;3.57;2.20;;;5.50;95.80;;;;;;5014850;28;20978;-75
2021/12/02 06:09:59;;;;;;;5.77;3.80;;;5.50;95.70;;;;;;5015173;28;20398;-75
2021/12/02 06:12:25;;;;;;;6.50;3.57;;;5.40;95.50;;;;;;5015592;28;20908;-76
2021/12/02 06:14:50;;;;;;;4.47;2.50;;;5.40;95.60;;;;;;5015091;28;20780;-75
2021/12/02 06:17:16;;;;;;;9.60;4.40;;;5.40;95.60;;;;;;5017332;28;20549;-75
2021/12/02 06:19:42;;;;;;;16.63;4.10;;;5.40;95.50;;;;;;5014644;28;20437;-74
2021/12/02 06:22:08;;;;;;;11.47;4.33;;;5.40;95.60;;;;;;5018831;28;20164;-76
2021/12/02 06:25:15;;;;;;;11.27;2.90;;;5.40;95.60;;;;;;5014214;28;20244;-77
2021/12/02 06:27:53;;;;;;;17.17;6.00;;;5.30;95.50;;;;;;5015708;28;20449;-76
2021/12/02 06:30:21;;;;;;;18.90;5.00;;;5.30;95.50;;;;;;5017688;28;20405;-76
2021/12/02 06:32:47;;;;;;;9.33;3.93;;;5.30;95.50;;;;;;5017617;28;20487;-76
2021/12/02 06:35:13;;;;;;;9.47;2.90;;;5.30;95.40;;;;;;5013113;28;20422;-75
2021/12/02 06:37:39;;;;;;;16.50;5.27;;;5.30;95.30;;;;;;5011604;28;20510;-76
2021/12/02 06:40:06;;;;;;;20.27;5.37;;;5.30;95.20;;;;;;5009205;28;20419;-74
2021/12/02 06:42:32;;;;;;;11.70;4.97;;;5.20;94.90;;;;;;5015170;28;20513;-76
2021/12/02 06:44:58;;;;;;;10.50;6.53;;;5.20;94.70;;;;;;5022758;28;20548;-75
2021/12/02 06:47:30;;;;;;;19.03;4.80;;;5.20;94.70;;;;;;5016463;28;20819;-76
2021/12/02 06:49:59;;;;;;;10.63;4.60;;;5.20;94.70;;;;;;5019456;28;20497;-75
2021/12/02 06:52:27;;;;;;;16.70;6.30;;;5.20;94.60;;;;;;5016202;28;20418;-77
2021/12/02 06:54:53;;;;;;;10.47;4.60;;;5.20;94.60;;;;;;5014945;28;20502;-77
2021/12/02 06:57:19;;;;;;;16.67;5.17;;;5.20;94.50;;;;;;5015912;28;20898;-76
2021/12/02 06:59:44;;;;;;;16.70;6.53;;;5.30;94.50;;;;;;5017268;28;20501;-75
2021/12/02 07:02:10;;;;;;;11.17;5.10;;;5.20;94.20;;;;;;5016284;28;20175;-77
2021/12/02 07:04:36;;;;;;;12.07;5.87;;;5.20;94.30;;;;;;5014952;28;20281;-74
2021/12/02 07:07:02;;;;;;;15.73;7.73;;;5.30;94.40;;;;;;4998308;28;20191;-75
2021/12/02 07:09:27;;;;;;;17.30;7.53;;;5.30;94.30;;;;;;5014149;28;20210;-75
2021/12/02 07:11:53;;;;;;;16.07;7.00;;;5.30;94.30;;;;;;5013586;28;20178;-75
2021/12/02 07:14:20;;;;;;;24.70;9.50;;;5.20;94.10;;;;;;5016054;28;20171;-75
2021/12/02 07:16:46;;;;;;;31.90;12.30;;;5.20;94.20;;;;;;5010121;28;20662;-74
2021/12/02 07:19:12;;;;;;;12.40;6.43;;;5.20;94.30;;;;;;4995571;28;20472;-75
2021/12/02 07:21:40;;;;;;;16.70;5.77;;;5.20;94.40;;;;;;4995166;28;20556;-75
2021/12/02 07:24:09;;;;;;;6.80;4.53;;;5.30;94.40;;;;;;4994860;28;20520;-75
2021/12/02 07:26:40;;;;;;;10.13;5.00;;;5.30;94.50;;;;;;4996114;28;20441;-74
2021/12/02 07:29:13;;;;;;;11.80;5.93;;;5.30;94.40;;;;;;4997074;28;20430;-76
2021/12/02 07:31:40;;;;;;;7.23;4.60;;;5.30;94.30;;;;;;5011272;28;20411;-75
2021/12/02 07:34:07;;;;;;;8.43;5.10;;;5.30;94.30;;;;;;4998243;28;20658;-75
2021/12/02 07:36:34;;;;;;;10.53;4.80;;;5.30;94.30;;;;;;4996017;28;20450;-74
2021/12/02 07:39:07;;;;;;;18.77;5.27;;;5.30;94.30;;;;;;4995038;28;20426;-75
2021/12/02 07:41:33;;;;;;;8.13;4.37;;;5.40;94.30;;;;;;4997419;28;20426;-74
2021/12/02 07:44:00;;;;;;;7.10;3.60;;;5.40;94.40;;;;;;4996624;28;20520;-74
2021/12/02 07:46:25;;;;;;;6.50;3.70;;;5.40;94.40;;;;;;4994302;28;20471;-74
2021/12/02 07:48:52;;;;;;;6.60;2.97;;;5.40;94.30;;;;;;4996587;28;20407;-75
2021/12/02 07:51:20;;;;;;;5.60;2.73;;;5.40;94.30;;;;;;4995392;28;20183;-76
2021/12/02 07:53:47;;;;;;;6.73;3.03;;;5.30;94.20;;;;;;4996705;28;20508;-75
2021/12/02 07:56:16;;;;;;;10.80;3.20;;;5.30;94.00;;;;;;4994325;28;20426;-75
2021/12/02 07:58:46;;;;;;;5.30;2.60;;;5.30;93.90;;;;;;4996881;28;20407;-75
2021/12/02 08:01:13;;;;;;;4.23;2.33;;;5.30;93.90;;;;;;4996615;28;20407;-75
2021/12/02 08:03:44;;;;;;;3.90;2.23;;;5.30;93.80;;;;;;4996818;28;20516;-75
2021/12/02 08:06:11;;;;;;;7.53;1.97;;;5.20;93.60;;;;;;4997132;28;20848;-75
2021/12/02 08:08:40;;;;;;;3.63;1.80;;;5.30;93.70;;;;;;4997682;28;20465;-75
2021/12/02 08:11:09;;;;;;;2.67;1.90;;;5.30;93.50;;;;;;5014220;28;20773;-75
2021/12/02 08:13:36;;;;;;;3.40;2.23;;;5.30;93.50;;;;;;5015253;28;20443;-74
2021/12/02 08:16:04;;;;;;;3.37;2.30;;;5.30;93.40;;;;;;4999716;28;20435;-74
2021/12/02 08:18:31;;;;;;;5.97;2.70;;;5.30;93.40;;;;;;5000418;28;20479;-76
2021/12/02 08:20:57;;;;;;;8.70;2.33;;;5.30;93.40;;;;;;5001723;28;20482;-75
2021/12/02 08:23:22;;;;;;;2.87;2.30;;;5.30;93.50;;;;;;5001568;28;20418;-74
2021/12/02 08:25:48;;;;;;;3.70;2.27;;;5.30;93.40;;;;;;5000430;28;20462;-74
2021/12/02 08:28:15;;;;;;;4.90;3.20;;;5.30;93.80;;;;;;5000826;28;20251;-74
2021/12/02 08:30:40;;;;;;;6.13;2.60;;;5.30;93.40;;;;;;5000256;28;20218;-75
2021/12/02 08:33:07;;;;;;;5.20;2.73;;;5.30;93.30;;;;;;5000402;28;20415;-74
2021/12/02 08:35:34;;;;;;;9.53;6.03;;;5.40;93.20;;;;;;5000806;28;20180;-75
2021/12/02 08:38:05;;;;;;;4.40;3.10;;;5.50;93.30;;;;;;5000406;28;20454;-75
2021/12/02 08:40:33;;;;;;;7.90;3.77;;;5.50;93.10;;;;;;5000233;28;20419;-76
2021/12/02 08:43:00;;;;;;;4.70;2.80;;;5.60;92.80;;;;;;4999453;28;20423;-74
2021/12/02 08:45:27;;;;;;;4.30;3.10;;;5.70;92.60;;;;;;5015897;28;20538;-75
2021/12/02 08:47:54;;;;;;;2.97;1.90;;;5.70;92.30;;;;;;5000677;28;20426;-73
2021/12/02 08:50:22;;;;;;;3.67;2.53;;;5.70;92.10;;;;;;4999041;28;20411;-75
2021/12/02 08:52:49;;;;;;;3.53;2.47;;;5.70;92.20;;;;;;4996683;28;20849;-74
2021/12/02 08:55:17;;;;;;;4.40;3.20;;;5.70;92.00;;;;;;4995937;28;20414;-74
2021/12/02 08:57:43;;;;;;;6.40;3.70;;;5.80;92.00;;;;;;4995830;28;20435;-75
2021/12/02 09:00:12;;;;;;;6.40;2.37;;;5.80;92.00;;;;;;4993702;28;20426;-73
2021/12/02 09:02:37;;;;;;;3.37;3.07;;;5.70;91.70;;;;;;4992851;28;20206;-74
2021/12/02 09:05:04;;;;;;;8.63;3.63;;;5.70;91.90;;;;;;4995498;28;20545;-76
2021/12/02 09:07:31;;;;;;;7.30;4.83;;;5.70;92.00;;;;;;5012148;28;20238;-76
2021/12/02 09:09:57;;;;;;;5.30;4.53;;;5.70;92.20;;;;;;4995900;28;20425;-75
2021/12/02 09:12:23;;;;;;;7.37;3.90;;;5.70;91.90;;;;;;4980649;28;20415;-75
2021/12/02 09:14:49;;;;;;;7.80;3.67;;;5.70;92.00;;;;;;5000055;28;20215;-74
2021/12/02 09:17:15;;;;;;;23.17;13.03;;;5.70;91.50;;;;;;5000990;28;20434;-75
2021/12/02 09:19:40;;;;;;;42.17;22.77;;;5.70;91.80;;;;;;5000833;28;20426;-75
2021/12/02 09:22:06;;;;;;;10.10;4.80;;;5.70;91.80;;;;;;5001088;28;20168;-76
2021/12/02 09:24:32;;;;;;;5.47;3.43;;;5.70;91.60;;;;;;4996903;28;20195;-76
2021/12/02 09:26:57;;;;;;;4.90;2.53;;;5.70;91.70;;;;;;4997442;28;20677;-76
2021/12/02 09:29:23;;;;;;;6.00;4.37;;;5.80;91.60;;;;;;4997782;28;20239;-75
2021/12/02 09:31:50;;;;;;;5.40;3.43;;;5.80;91.70;;;;;;4997924;28;20263;-76
2021/12/02 09:34:16;;;;;;;3.97;2.50;;;5.90;91.40;;;;;;5012136;28;20418;-75
2021/12/02 09:36:43;;;;;;;4.20;2.57;;;5.90;91.30;;;;;;4997954;28;20968;-73
2021/12/02 09:39:10;;;;;;;6.10;2.70;;;6.10;92.30;;;;;;4998022;28;20214;-74
2021/12/02 09:41:37;;;;;;;4.53;2.57;;;6.70;90.40;;;;;;4999685;28;20987;-73
2021/12/02 09:44:03;;;;;;;4.67;2.37;;;7.30;89.50;;;;;;5000217;28;20458;-76
2021/12/02 09:46:30;;;;;;;6.27;4.27;;;7.70;85.00;;;;;;4999439;28;20590;-75
2021/12/02 09:48:58;;;;;;;5.40;3.13;;;7.80;83.30;;;;;;5005723;28;20422;-73
2021/12/02 09:51:27;;;;;;;5.90;3.50;;;7.80;79.60;;;;;;5008830;28;20575;-76
2021/12/02 09:53:57;;;;;;;5.40;3.30;;;7.60;80.80;;;;;;5008682;28;20421;-75
2021/12/02 09:56:31;;;;;;;5.03;2.43;;;7.40;81.60;;;;;;4999044;28;20445;-75
2021/12/02 09:59:11;;;;;;;5.00;2.60;;;7.20;81.40;;;;;;4997763;28;20453;-74
2021/12/02 10:01:43;;;;;;;3.53;2.83;;;7.10;82.90;;;;;;4998033;28;20426;-75
2021/12/02 10:04:11;;;;;;;9.43;5.50;;;7.00;83.00;;;;;;4997950;28;20555;-74
2021/12/02 10:06:37;;;;;;;8.60;4.00;;;7.10;83.70;;;;;;4997973;28;20446;-75
2021/12/02 10:09:12;;;;;;;5.83;3.37;;;7.20;84.00;;;;;;4996637;28;20403;-74
2021/12/02 10:14:39;;;;;;;3.57;2.83;;;7.10;83.30;;;;;;4999198;28;20463;-75
2021/12/02 10:20:51;;;;;;;7.90;5.40;;;6.90;83.60;;;;;;4997619;28;20491;-74
2021/12/02 10:23:21;;;;;;;9.03;3.50;;;6.70;84.20;;;;;;4995346;28;20545;-74
2021/12/02 10:25:56;;;;;;;2.97;2.67;;;6.50;84.90;;;;;;4995850;28;20450;-75
2021/12/02 10:28:23;;;;;;;4.50;2.93;;;6.30;85.40;;;;;;4995995;28;20403;-74
2021/12/02 10:30:58;;;;;;;4.20;2.97;;;6.10;85.90;;;;;;5011921;28;20437;-75
2021/12/02 10:33:46;;;;;;;9.20;3.50;;;6.00;86.80;;;;;;4997199;28;20406;-75
2021/12/02 10:36:36;;;;;;;5.90;3.73;;;5.80;86.80;;;;;;4996824;28;20455;-76
2021/12/02 10:39:19;;;;;;;4.13;2.77;;;5.80;87.60;;;;;;4995025;28;20419;-75
2021/12/02 10:41:46;;;;;;;5.57;2.63;;;5.80;88.40;;;;;;5011821;28;20409;-76
2021/12/02 10:44:28;;;;;;;3.40;2.83;;;6.00;88.90;;;;;;4996808;28;20515;-74
2021/12/02 10:47:10;;;;;;;3.33;2.97;;;6.30;88.60;;;;;;4996610;28;20883;-73
2021/12/02 10:49:50;;;;;;;3.87;2.90;;;6.60;87.90;;;;;;5011735;28;20430;-75
2021/12/02 10:52:20;;;;;;;6.47;2.50;;;6.80;87.20;;;;;;4996659;28;20427;-75
2021/12/02 10:54:51;;;;;;;5.90;3.07;;;7.00;86.90;;;;;;4994831;28;20423;-76
2021/12/02 10:57:22;;;;;;;4.67;3.57;;;7.30;84.00;;;;;;4994498;28;20537;-75
2021/12/02 10:59:54;;;;;;;5.63;2.43;;;7.30;82.50;;;;;;4996083;28;20726;-74
2021/12/02 11:02:34;;;;;;;4.03;2.77;;;7.20;81.00;;;;;;4996809;28;20801;-74
2021/12/02 11:05:31;;;;;;;3.30;2.63;;;7.10;82.30;;;;;;5012140;28;20513;-75
2021/12/02 11:08:06;;;;;;;2.77;2.33;;;7.10;81.90;;;;;;4996233;28;20451;-75
2021/12/02 11:10:35;;;;;;;3.57;2.37;;;7.20;80.90;;;;;;4999057;28;20418;-74
2021/12/02 11:13:00;;;;;;;2.93;1.90;;;7.20;78.10;;;;;;5002078;28;20407;-74
2021/12/02 11:15:28;;;;;;;12.40;4.00;;;7.00;79.20;;;;;;4999399;28;20923;-75
2021/12/02 11:17:59;;;;;;;4.60;1.90;;;6.90;80.00;;;;;;4997539;28;20547;-75
2021/12/02 11:20:34;;;;;;;3.10;2.80;;;6.70;80.50;;;;;;5013845;28;20800;-75
2021/12/02 11:23:04;;;;;;;8.00;2.53;;;6.60;80.90;;;;;;4998696;28;20444;-75
2021/12/02 11:25:31;;;;;;;3.53;1.57;;;6.50;81.10;;;;;;4995729;28;20536;-75
2021/12/02 11:28:02;;;;;;;5.77;1.60;;;6.40;80.90;;;;;;4995814;28;20513;-74
2021/12/02 11:30:29;;;;;;;3.73;2.07;;;6.20;81.70;;;;;;4995445;28;20470;-75
2021/12/02 11:33:06;;;;;;;3.40;1.70;;;6.10;82.10;;;;;;4995386;28;20417;-74
2021/12/02 11:35:38;;;;;;;4.37;2.23;;;6.00;82.60;;;;;;4995331;28;20433;-75
2021/12/02 11:38:08;;;;;;;9.70;4.00;;;5.90;82.70;;;;;;5072865;23;20490;-80
2021/12/02 11:40:40;;;;;;;33.80;7.10;;;5.90;82.50;;;;;;5063194;28;20420;-80
2021/12/02 11:43:08;;;;;;;11.93;5.00;;;6.00;83.10;;;;;;5059442;28;20420;-79
2021/12/02 11:45:42;;;;;;;5.33;3.73;;;6.10;83.40;;;;;;5055090;28;20452;-81
2021/12/02 11:48:08;;;;;;;3.23;2.00;;;6.20;82.80;;;;;;5055731;28;20633;-81
2021/12/02 11:50:34;;;;;;;8.30;2.27;;;6.30;82.30;;;;;;5054605;28;20427;-81
2021/12/02 11:52:59;;;;;;;3.00;1.90;;;6.40;81.80;;;;;;5054734;28;20411;-81
2021/12/02 11:55:32;;;;;;;7.43;1.53;;;6.60;82.20;;;;;;5056880;28;20682;-80
2021/12/02 11:57:58;;;;;;;1.80;1.40;;;6.80;81.80;;;;;;5055333;28;20265;-81
2021/12/02 12:00:26;;;;;;;23.50;9.20;;;6.90;80.10;;;;;;5055002;28;20586;-81
2021/12/02 12:03:16;;;;;;;25.37;12.30;;;7.00;79.20;;;;;;5056001;28;20408;-82
2021/12/02 12:06:05;;;;;;;5.27;2.20;;;6.90;79.20;;;;;;5056980;28;20466;-81
2021/12/02 12:08:38;;;;;;;6.77;1.70;;;6.90;79.60;;;;;;5061712;28;20451;-81
2021/12/02 12:11:22;;;;;;;1.90;1.43;;;6.90;80.00;;;;;;5056106;28;20786;-80
2021/12/02 12:14:00;;;;;;;8.50;2.50;;;6.80;79.60;;;;;;5054774;28;20404;-81
2021/12/02 12:16:46;;;;;;;3.37;2.30;;;6.70;79.30;;;;;;5036358;28;20840;-81
2021/12/02 12:19:29;;;;;;;4.47;1.80;;;6.50;79.10;;;;;;5053865;28;20420;-82
2021/12/02 12:22:04;;;;;;;2.93;2.00;;;6.50;80.20;;;;;;5057398;28;20416;-80
2021/12/02 12:24:50;;;;;;;5.90;2.60;;;6.40;80.60;;;;;;5054173;28;20459;-81
2021/12/02 12:27:27;;;;;;;3.50;2.23;;;6.40;82.00;;;;;;5053217;28;20802;-80
2021/12/02 12:32:50;;;;;;;3.30;1.50;;;6.40;81.50;;;;;;5053122;28;20424;-80
2021/12/02 12:37:59;;;;;;;5.13;2.80;;;6.50;80.10;;;;;;5053627;28;20505;-80
2021/12/02 12:40:46;;;;;;;5.03;2.20;;;6.60;78.90;;;;;;5052652;28;20816;-80
2021/12/02 12:43:16;;;;;;;6.50;3.50;;;6.50;77.90;;;;;;5053111;28;20470;-81
2021/12/02 12:45:43;;;;;;;3.60;2.43;;;6.40;78.20;;;;;;5054618;28;20482;-80
2021/12/02 12:48:25;;;;;;;4.10;2.80;;;6.30;78.70;;;;;;5056788;28;20965;-80
2021/12/02 12:50:52;;;;;;;8.80;5.07;;;6.20;79.30;;;;;;5055969;28;21021;-81
2021/12/02 12:53:34;;;;;;;4.10;2.83;;;6.20;79.20;;;;;;5054006;28;20445;-81
2021/12/02 12:56:09;;;;;;;5.40;3.03;;;6.10;78.50;;;;;;5055473;28;20747;-81
2021/12/02 12:58:56;;;;;;;4.20;2.90;;;6.00;79.20;;;;;;5054412;28;20410;-81
2021/12/02 13:01:25;;;;;;;4.37;3.00;;;6.00;79.40;;;;;;5035747;28;20630;-80
2021/12/02 13:04:19;;;;;;;4.83;2.63;;;6.00;79.60;;;;;;5053588;28;20473;-81
2021/12/02 13:06:50;;;;;;;6.87;2.97;;;6.10;79.20;;;;;;5053867;28;20428;-80
2021/12/02 13:09:45;;;;;;;4.13;2.50;;;6.00;79.60;;;;;;5053441;28;20412;-81
2021/12/02 13:12:13;;;;;;;3.00;2.70;;;6.00;80.00;;;;;;5052256;28;20639;-81
2021/12/02 13:14:40;;;;;;;4.80;2.90;;;5.90;79.50;;;;;;5054119;28;20457;-81
2021/12/02 13:17:39;;;;;;;6.60;2.97;;;5.90;79.70;;;;;;5054022;28;20447;-81
2021/12/02 13:20:13;;;;;;;5.83;2.70;;;5.80;79.80;;;;;;5054457;28;20411;-81
2021/12/02 13:22:39;;;;;;;3.37;2.70;;;5.80;79.70;;;;;;5054776;28;20416;-81
2021/12/02 13:25:40;;;;;;;3.53;2.23;;;5.80;80.10;;;;;;5057971;28;20550;-81
2021/12/02 13:28:19;;;;;;;4.23;2.40;;;5.90;79.20;;;;;;5057208;28;20182;-80
2021/12/02 13:30:53;;;;;;;9.07;4.73;;;5.90;79.70;;;;;;5057226;28;20483;-80
2021/12/02 13:33:19;;;;;;;10.40;4.27;;;5.90;79.80;;;;;;5058841;28;20472;-80
2021/12/02 13:35:45;;;;;;;6.47;4.20;;;6.00;79.70;;;;;;5057068;28;20497;-80
2021/12/02 13:38:12;;;;;;;9.07;3.27;;;6.00;79.00;;;;;;5054234;28;20440;-80
2021/12/02 13:40:41;;;;;;;13.43;3.93;;;6.10;79.70;;;;;;5053633;28;20420;-81
2021/12/02 13:43:09;;;;;;;7.07;3.43;;;6.10;79.00;;;;;;5037706;28;20519;-80
2021/12/02 13:45:34;;;;;;;4.67;2.70;;;6.10;79.00;;;;;;5053788;28;20463;-81
2021/12/02 13:48:17;;;;;;;6.10;3.10;;;6.10;80.80;;;;;;5055896;28;20430;-81
2021/12/02 13:50:52;;;;;;;8.70;4.10;;;6.10;79.80;;;;;;5054957;28;20523;-81